Time;durP1;ratioP1;P1;durP2;ratioP2;P2;SDS_P1;SDS_P2;PMS_P1;PMS_P2;Temp;Humidity;BMP_temperature;BMP_pressure;BME280_temperature;BME280_humidity;BME280_pressure;Samples;Min_cycle;Max_cycle;Signal;HPM_P1;HPM_P2
2024/04/18 00:01:00;;;;;;;0.17;0.17;;;;;;;7.90;69.29;101673.44;5380292;26;20011;-80
2024/04/18 00:03:26;;;;;;;0.10;0.10;;;;;;;7.94;69.52;101675.25;5377525;26;20007;-83
2024/04/18 00:05:53;;;;;;;0.20;0.20;;;;;;;7.95;69.41;101682.28;5376348;26;20015;-81
2024/04/18 00:08:19;;;;;;;0.10;0.10;;;;;;;8.00;68.98;101685.84;5373464;26;20000;-81
2024/04/18 00:10:45;;;;;;;0.10;0.10;;;;;;;8.02;68.92;101689.34;5378366;26;20023;-80
2024/04/18 00:13:11;;;;;;;0.10;0.10;;;;;;;8.01;68.88;101698.16;5380982;26;20023;-81
2024/04/18 00:15:39;;;;;;;0.10;0.10;;;;;;;8.02;68.86;101688.47;5382681;26;20000;-82
2024/04/18 00:18:05;;;;;;;0.20;0.20;;;;;;;8.06;69.04;101696.41;5386017;26;19993;-81
2024/04/18 00:20:31;;;;;;;0.20;0.20;;;;;;;8.07;68.97;101697.28;5401283;26;20003;-80
2024/04/18 00:22:57;;;;;;;0.20;0.20;;;;;;;8.03;69.07;101703.44;5402553;26;19996;-81
2024/04/18 00:25:23;;;;;;;0.10;0.10;;;;;;;8.06;68.84;101688.50;5380300;26;20019;-80
2024/04/18 00:27:50;;;;;;;0.17;0.17;;;;;;;8.08;68.79;101699.06;5386613;26;20327;-81
2024/04/18 00:30:16;;;;;;;0.10;0.10;;;;;;;8.09;68.81;101695.53;5393472;26;20008;-80
2024/04/18 00:32:42;;;;;;;0.10;0.10;;;;;;;8.07;68.79;101703.47;5387318;26;20011;-79
2024/04/18 00:35:08;;;;;;;0.10;0.10;;;;;;;8.08;68.60;101707.84;5384213;26;20069;-81
2024/04/18 00:37:35;;;;;;;0.10;0.10;;;;;;;8.07;68.66;101708.75;5384354;26;20008;-80
2024/04/18 00:40:01;;;;;;;0.10;0.10;;;;;;;8.06;68.58;101711.34;5384233;26;20013;-80
2024/04/18 00:42:28;;;;;;;0.13;0.13;;;;;;;8.07;68.64;101715.75;5384341;26;20344;-82
2024/04/18 00:44:54;;;;;;;0.10;0.10;;;;;;;8.04;68.82;101711.34;5384254;26;20011;-80
2024/04/18 00:47:20;;;;;;;0.10;0.10;;;;;;;8.00;68.59;101709.59;5384905;26;20004;-82
2024/04/18 00:49:46;;;;;;;0.10;0.10;;;;;;;7.97;68.52;101709.56;5384667;26;20011;-82
2024/04/18 00:52:18;;;;;;;0.10;0.10;;;;;;;7.93;68.49;101715.69;5379470;26;20390;-82
2024/04/18 00:54:46;;;;;;;0.30;0.30;;;;;;;7.89;68.48;101714.81;5385690;26;20011;-82
2024/04/18 00:57:14;;;;;;;0.10;0.10;;;;;;;7.85;68.58;101717.41;5383322;26;20138;-80
2024/04/18 00:59:41;;;;;;;0.10;0.10;;;;;;;7.77;68.43;101718.25;5372347;26;20485;-80
2024/04/18 01:02:07;;;;;;;0.77;0.77;;;;;;;7.76;68.50;101718.25;5392876;26;20379;-80
2024/04/18 01:04:33;;;;;;;0.10;0.10;;;;;;;7.71;68.49;101715.59;5381753;26;20623;-81
2024/04/18 01:07:00;;;;;;;0.15;0.15;;;;;;;7.68;68.55;101718.19;5382860;26;20008;-79
2024/04/18 01:09:26;;;;;;;0.20;0.20;;;;;;;7.66;68.68;101729.63;5378218;26;20788;-80
2024/04/18 01:11:52;;;;;;;0.10;0.10;;;;;;;7.62;68.92;101726.06;5379217;26;20008;-81
2024/04/18 01:14:18;;;;;;;0.20;0.20;;;;;;;7.58;68.89;101729.56;5380710;26;20012;-82
2024/04/18 01:16:45;;;;;;;0.20;0.20;;;;;;;7.54;68.75;101735.69;5381030;26;20011;-82
2024/04/18 01:19:17;;;;;;;0.20;0.20;;;;;;;7.50;68.78;101739.19;5381986;26;19992;-82
2024/04/18 01:21:43;;;;;;;0.20;0.20;;;;;;;7.44;68.60;101735.63;5376671;26;20004;-82
2024/04/18 01:24:13;;;;;;;0.13;0.13;;;;;;;7.43;69.01;101736.50;5381319;26;20016;-82
2024/04/18 01:26:39;;;;;;;0.20;0.20;;;;;;;7.38;68.96;101748.75;5386696;26;20010;-81
2024/04/18 01:29:05;;;;;;;0.20;0.20;;;;;;;7.35;68.80;101743.47;5395554;26;19996;-80
2024/04/18 01:31:32;;;;;;;0.13;0.13;;;;;;;7.32;69.27;101746.06;5396472;26;20000;-80
2024/04/18 01:33:58;;;;;;;0.17;0.17;;;;;;;7.32;68.89;101750.47;5383705;26;19996;-80
2024/04/18 01:36:25;;;;;;;0.10;0.10;;;;;;;7.27;69.17;101746.03;5380890;26;20011;-80
2024/04/18 01:38:51;;;;;;;0.10;0.10;;;;;;;7.25;69.32;101742.53;5383127;26;20000;-81
2024/04/18 01:41:18;;;;;;;0.20;0.20;;;;;;;7.25;69.27;101752.16;5385257;26;20011;-81
2024/04/18 01:43:45;;;;;;;0.17;0.17;;;;;;;7.22;69.52;101754.78;5387089;26;19996;-82
2024/04/18 01:46:11;;;;;;;0.10;0.10;;;;;;;7.21;69.46;101756.53;5391005;26;20330;-82
2024/04/18 01:48:38;;;;;;;0.30;0.30;;;;;;;7.21;69.53;101766.19;5384332;26;20313;-82
2024/04/18 01:51:04;;;;;;;0.10;0.10;;;;;;;7.20;69.39;101773.22;5382177;26;20019;-82
2024/04/18 01:53:31;;;;;;;0.20;0.20;;;;;;;7.18;69.55;101772.31;5381867;26;20065;-81
2024/04/18 01:55:57;;;;;;;0.20;0.20;;;;;;;7.16;69.56;101771.41;5385072;26;20004;-81
2024/04/18 01:58:23;;;;;;;0.10;0.10;;;;;;;7.16;69.61;101774.06;5383252;26;20015;-82
2024/04/18 02:00:49;;;;;;;0.10;0.10;;;;;;;7.10;70.18;101785.44;5384968;26;19996;-81
2024/04/18 02:03:16;;;;;;;0.20;0.20;;;;;;;7.12;69.93;101786.31;5385130;26;20466;-80
2024/04/18 02:05:42;;;;;;;0.13;0.13;;;;;;;7.09;69.85;101783.66;5384305;26;20040;-80
2024/04/18 02:08:08;;;;;;;0.10;0.10;;;;;;;7.10;70.14;101785.44;5377208;26;20004;-81
2024/04/18 02:10:35;;;;;;;0.20;0.20;;;;;;;7.11;69.74;101784.53;5383797;26;20012;-81
2024/04/18 02:13:01;;;;;;;0.10;0.10;;;;;;;7.11;69.93;101786.31;5382832;26;20007;-81
2024/04/18 02:15:27;;;;;;;0.40;0.40;;;;;;;7.10;70.15;101784.53;5381119;26;20557;-80
2024/04/18 02:17:54;;;;;;;0.43;0.43;;;;;;;7.11;69.90;101787.19;5376129;26;20001;-81
2024/04/18 02:20:21;;;;;;;0.20;0.20;;;;;;;7.10;69.88;101790.72;5377471;26;20008;-81
2024/04/18 02:22:47;;;;;;;0.10;0.10;;;;;;;7.08;70.38;101792.44;5380415;26;19996;-80
2024/04/18 02:25:13;;;;;;;0.10;0.10;;;;;;;7.07;70.41;101800.34;5381175;26;20035;-81
2024/04/18 02:27:42;;;;;;;0.20;0.20;;;;;;;7.07;70.22;101798.56;5381021;26;19996;-81
2024/04/18 02:30:09;;;;;;;0.10;0.10;;;;;;;7.06;70.43;101802.06;5374601;26;20011;-82
2024/04/18 02:32:37;;;;;;;0.30;0.30;;;;;;;7.07;70.03;101806.47;5381554;26;20004;-81
2024/04/18 02:35:04;;;;;;;0.17;0.17;;;;;;;7.05;70.10;101808.22;5387402;26;19989;-81
2024/04/18 02:37:30;;;;;;;0.10;0.10;;;;;;;7.02;70.43;101810.81;5400041;26;20585;-83
2024/04/18 02:39:57;;;;;;;0.22;0.22;;;;;;;7.00;70.05;101815.19;5393183;26;20012;-80
2024/04/18 02:42:24;;;;;;;0.63;0.63;;;;;;;7.00;70.05;101809.03;5378498;26;20000;-81
2024/04/18 02:44:50;;;;;;;0.10;0.10;;;;;;;7.01;70.01;101816.09;5379977;26;19996;-82
2024/04/18 02:47:17;;;;;;;0.10;0.10;;;;;;;6.99;70.26;101817.81;5380132;26;20502;-82
2024/04/18 02:49:43;;;;;;;0.10;0.10;;;;;;;6.97;70.29;101821.31;5370005;26;20000;-82
2024/04/18 02:52:09;;;;;;;0.10;0.10;;;;;;;6.97;70.01;101826.56;5377264;26;20000;-82
2024/04/18 02:54:35;;;;;;;0.20;0.20;;;;;;;6.97;70.20;101830.97;5379504;26;20004;-81
2024/04/18 02:57:02;;;;;;;0.10;0.10;;;;;;;6.97;69.93;101830.97;5380410;26;20007;-82
2024/04/18 02:59:28;;;;;;;0.10;0.10;;;;;;;6.92;69.92;101837.94;5381105;26;20354;-82
2024/04/18 03:01:54;;;;;;;0.20;0.20;;;;;;;6.91;70.16;101837.03;5394910;26;20014;-81
2024/04/18 03:04:20;;;;;;;0.22;0.22;;;;;;;6.92;70.10;101845.84;5389488;26;20028;-82
2024/04/18 03:06:47;;;;;;;0.10;0.10;;;;;;;6.91;70.25;101851.97;5386660;26;19996;-82
2024/04/18 03:09:16;;;;;;;0.10;0.10;;;;;;;6.90;70.07;101851.09;5384287;26;20016;-82
2024/04/18 03:11:45;;;;;;;0.10;0.10;;;;;;;6.90;69.96;101852.84;5389959;26;20007;-82
2024/04/18 03:14:11;;;;;;;0.10;0.10;;;;;;;6.86;70.19;101856.31;5389349;26;19996;-82
2024/04/18 03:16:38;;;;;;;0.20;0.20;;;;;;;6.86;70.01;101848.41;5382546;26;20000;-81
2024/04/18 03:19:11;;;;;;;0.17;0.17;;;;;;;6.90;70.17;101852.84;5383064;26;20008;-82
2024/04/18 03:21:37;;;;;;;0.10;0.10;;;;;;;6.84;70.26;101856.31;5378358;26;19996;-82
2024/04/18 03:24:18;;;;;;;0.30;0.30;;;;;;;6.91;69.98;101863.38;5374898;26;20015;-82
2024/04/18 03:26:45;;;;;;;0.10;0.10;;;;;;;6.83;70.25;101859.81;5386086;26;20000;-80
2024/04/18 03:29:12;;;;;;;0.10;0.10;;;;;;;6.85;70.16;101862.44;5388490;26;20004;-83
2024/04/18 03:31:41;;;;;;;0.20;0.20;;;;;;;6.87;70.07;101868.63;5383391;26;20008;-83
2024/04/18 03:34:07;;;;;;;0.20;0.20;;;;;;;6.87;70.27;101869.50;5383945;26;20035;-82
2024/04/18 03:36:36;;;;;;;0.60;0.60;;;;;;;6.88;70.08;101875.63;5383177;26;20078;-82
2024/04/18 03:39:02;;;;;;;0.10;0.10;;;;;;;6.90;70.08;101876.56;5384124;26;20008;-82
2024/04/18 03:41:28;;;;;;;0.20;0.20;;;;;;;6.91;70.09;101883.59;5384478;26;20367;-83
2024/04/18 03:43:56;;;;;;;0.17;0.17;;;;;;;6.91;70.32;101878.31;5392951;26;20008;-82
2024/04/18 03:46:25;;;;;;;0.10;0.10;;;;;;;6.94;70.38;101876.63;5393872;26;20011;-84
2024/04/18 03:48:51;;;;;;;0.20;0.20;;;;;;;7.00;70.24;101882.81;5375134;26;20021;-82
2024/04/18 03:51:17;;;;;;;0.10;0.10;;;;;;;7.00;70.54;101888.09;5383554;26;20004;-82
2024/04/18 03:53:43;;;;;;;0.20;0.20;;;;;;;6.99;70.30;101886.31;5380753;26;20000;-82
2024/04/18 03:56:10;;;;;;;0.10;0.10;;;;;;;7.00;70.57;101894.22;5379197;26;20015;-81
2024/04/18 03:58:36;;;;;;;0.13;0.13;;;;;;;7.00;70.39;101894.22;5379802;26;20808;-81
2024/04/18 04:01:02;;;;;;;0.28;0.28;;;;;;;6.97;70.50;101897.72;5378842;26;20637;-81
2024/04/18 04:03:28;;;;;;;0.20;0.20;;;;;;;6.95;70.15;101895.94;5382576;26;20016;-82
2024/04/18 04:05:54;;;;;;;0.20;0.20;;;;;;;6.94;70.18;101888.88;5383496;26;20018;-82
2024/04/18 04:08:20;;;;;;;0.20;0.20;;;;;;;6.92;70.09;101902.03;5383135;26;20000;-82
2024/04/18 04:10:46;;;;;;;0.10;0.10;;;;;;;6.88;70.29;101896.72;5385370;26;19996;-83
2024/04/18 04:13:13;;;;;;;0.10;0.10;;;;;;;6.86;70.05;101901.09;5385107;26;19992;-83
2024/04/18 04:15:39;;;;;;;0.20;0.20;;;;;;;6.84;70.08;101902.81;5384079;26;20003;-83
2024/04/18 04:18:05;;;;;;;0.20;0.20;;;;;;;6.84;69.97;101908.09;5380744;26;20011;-82
2024/04/18 04:20:31;;;;;;;0.20;0.20;;;;;;;6.80;70.15;101912.44;5395686;26;20003;-82
2024/04/18 04:22:57;;;;;;;0.10;0.10;;;;;;;6.78;70.00;101909.78;5389037;26;19996;-82
2024/04/18 04:25:23;;;;;;;0.20;0.20;;;;;;;6.76;70.03;101910.63;5383626;26;20004;-83
2024/04/18 04:27:49;;;;;;;0.20;0.20;;;;;;;6.73;69.78;101921.09;5384967;26;20019;-82
2024/04/18 04:30:16;;;;;;;0.20;0.20;;;;;;;6.71;69.76;101926.38;5384373;26;20001;-82
2024/04/18 04:32:42;;;;;;;0.20;0.20;;;;;;;6.68;69.89;101934.25;5382271;26;20028;-83
2024/04/18 04:35:10;;;;;;;0.20;0.20;;;;;;;6.69;69.80;101928.13;5374378;26;20004;-83
2024/04/18 04:37:36;;;;;;;0.20;0.20;;;;;;;6.67;69.87;101927.19;5384689;26;19996;-81
2024/04/18 04:40:02;;;;;;;0.20;0.20;;;;;;;6.62;69.99;101940.28;5383647;26;20004;-83
2024/04/18 04:42:29;;;;;;;0.40;0.40;;;;;;;6.63;70.17;101941.19;5378503;26;20004;-83
2024/04/18 04:44:55;;;;;;;0.10;0.10;;;;;;;6.62;70.02;101940.28;5383373;26;20011;-83
2024/04/18 04:47:21;;;;;;;0.10;0.10;;;;;;;6.61;70.13;101937.66;5384204;26;20007;-83
2024/04/18 04:49:47;;;;;;;0.20;0.20;;;;;;;6.60;70.43;101951.66;5384708;26;20137;-83
2024/04/18 04:52:13;;;;;;;0.20;0.20;;;;;;;6.58;70.34;101956.00;5381410;26;19988;-82
2024/04/18 04:54:43;;;;;;;0.10;0.10;;;;;;;6.58;70.36;101951.66;5401550;26;20029;-83
2024/04/18 04:57:10;;;;;;;0.20;0.20;;;;;;;6.58;70.74;101961.28;5401027;26;20004;-83
2024/04/18 04:59:37;;;;;;;3.13;2.25;;;;;;;6.58;70.35;101959.56;5392760;26;19996;-83
2024/04/18 05:02:04;;;;;;;0.95;0.95;;;;;;;6.57;70.88;101967.44;5386685;26;20010;-82
2024/04/18 05:04:30;;;;;;;0.20;0.20;;;;;;;6.58;70.48;101966.56;5384163;26;19996;-83
2024/04/18 05:06:56;;;;;;;0.10;0.10;;;;;;;6.55;70.69;101974.41;5386232;26;20004;-83
2024/04/18 05:09:23;;;;;;;0.13;0.13;;;;;;;6.53;70.53;101977.03;5385497;26;20004;-83
2024/04/18 05:11:49;;;;;;;0.20;0.20;;;;;;;6.54;70.65;101985.81;5385793;26;20008;-82
2024/04/18 05:14:15;;;;;;;0.20;0.20;;;;;;;6.56;70.50;101992.00;5386183;26;20032;-82
2024/04/18 05:16:41;;;;;;;0.10;0.10;;;;;;;6.60;70.45;101993.81;5386733;26;20011;-80
2024/04/18 05:19:09;;;;;;;0.15;0.15;;;;;;;6.60;70.62;102009.59;5388094;26;20006;-82
2024/04/18 05:21:36;;;;;;;0.10;0.10;;;;;;;6.61;70.78;101998.22;5386656;26;20008;-80
2024/04/18 05:24:02;;;;;;;0.10;0.10;;;;;;;6.59;70.77;101998.19;5386861;26;19999;-81
2024/04/18 05:26:32;;;;;;;0.10;0.10;;;;;;;6.61;70.82;101999.09;5385992;26;20138;-80
2024/04/18 05:31:47;;;;;;;3.50;2.40;;;;;;;6.61;70.88;102008.75;5381635;26;20015;-81
2024/04/18 05:34:14;;;;;;;0.50;0.50;;;;;;;6.63;70.78;102014.94;5381775;26;20028;-80
2024/04/18 05:36:40;;;;;;;0.20;0.20;;;;;;;6.65;70.96;102010.56;5384723;26;20443;-81
2024/04/18 05:39:06;;;;;;;0.10;0.10;;;;;;;6.68;70.73;102010.63;5388354;26;20011;-81
2024/04/18 05:41:32;;;;;;;0.20;0.20;;;;;;;6.72;70.73;102022.97;5387257;26;20486;-81
2024/04/18 05:43:59;;;;;;;0.17;0.17;;;;;;;6.76;70.75;102032.66;5388537;26;20008;-80
2024/04/18 05:46:25;;;;;;;0.10;0.10;;;;;;;6.81;70.63;102030.13;5387405;26;20001;-80
2024/04/18 05:48:51;;;;;;;0.17;0.17;;;;;;;6.85;70.80;102025.78;5387053;26;20028;-80
2024/04/18 05:51:17;;;;;;;0.15;0.15;;;;;;;6.90;70.89;102035.53;5387546;26;20004;-82
2024/04/18 05:53:44;;;;;;;0.20;0.20;;;;;;;6.97;70.78;102041.75;5388066;26;20352;-82
2024/04/18 05:56:11;;;;;;;0.20;0.20;;;;;;;7.02;70.88;102037.44;5387511;26;20364;-81
2024/04/18 05:58:38;;;;;;;0.52;0.52;;;;;;;7.07;70.72;102030.47;5388707;26;20086;-80
2024/04/18 06:01:05;;;;;;;0.10;0.10;;;;;;;7.14;70.99;102034.09;5392451;26;20058;-81
2024/04/18 06:03:32;;;;;;;0.20;0.20;;;;;;;7.20;70.88;102038.56;5391970;26;20007;-81
2024/04/18 06:05:59;;;;;;;0.20;0.20;;;;;;;7.27;70.89;102029.88;5385101;26;20004;-81
2024/04/18 06:08:26;;;;;;;0.20;0.20;;;;;;;7.33;71.07;102035.22;5381712;26;20004;-81
2024/04/18 06:10:52;;;;;;;0.10;0.10;;;;;;;7.37;71.02;102050.19;5378603;26;20012;-82
2024/04/18 06:13:24;;;;;;;0.10;0.10;;;;;;;7.47;70.94;102047.69;5377605;26;20083;-81
2024/04/18 06:15:51;;;;;;;0.20;0.20;;;;;;;7.47;71.15;102060.88;5379386;26;20007;-83
2024/04/18 06:18:17;;;;;;;0.10;0.10;;;;;;;7.53;70.70;102058.31;5381087;26;20336;-81
2024/04/18 06:20:44;;;;;;;0.10;0.10;;;;;;;7.55;70.74;102064.47;5381449;26;20011;-82
2024/04/18 06:23:11;;;;;;;0.20;0.20;;;;;;;7.56;70.67;102066.25;5375752;26;20000;-81
2024/04/18 06:25:38;;;;;;;0.10;0.10;;;;;;;7.55;70.78;102077.66;5382844;26;20008;-83
2024/04/18 06:28:09;;;;;;;0.10;0.10;;;;;;;7.58;71.00;102078.59;5369654;26;20078;-83
2024/04/18 06:30:36;;;;;;;0.20;0.20;;;;;;;7.61;71.25;102077.75;5380950;26;20000;-81
2024/04/18 06:33:02;;;;;;;0.20;0.20;;;;;;;7.67;71.22;102077.81;5370706;26;20086;-83
2024/04/18 06:35:28;;;;;;;0.10;0.10;;;;;;;7.77;71.35;102081.44;5386305;26;20004;-84
2024/04/18 06:37:55;;;;;;;0.20;0.20;;;;;;;7.85;71.21;102082.44;5388058;26;19998;-82
2024/04/18 06:40:24;;;;;;;0.17;0.17;;;;;;;7.97;71.32;102073.75;5388207;26;19997;-82
2024/04/18 06:42:52;;;;;;;0.20;0.20;;;;;;;8.06;71.26;102081.78;5383167;26;20023;-82
2024/04/18 06:45:19;;;;;;;0.10;0.10;;;;;;;8.18;71.20;102080.13;5378759;26;20006;-81
2024/04/18 06:47:45;;;;;;;0.10;0.10;;;;;;;8.33;70.96;102082.03;5382124;26;20011;-81
2024/04/18 06:50:11;;;;;;;0.15;0.15;;;;;;;8.51;71.02;102078.69;5382660;26;20000;-82
2024/04/18 06:52:38;;;;;;;0.20;0.20;;;;;;;8.70;70.90;102090.31;5389012;26;20015;-83
2024/04/18 06:55:04;;;;;;;0.20;0.20;;;;;;;8.83;70.22;102096.56;5389086;26;20014;-84
2024/04/18 06:57:30;;;;;;;0.10;0.10;;;;;;;8.99;69.54;102093.16;5387548;26;20983;-85
2024/04/18 06:59:57;;;;;;;0.13;0.13;;;;;;;9.18;70.10;102098.56;5384910;26;20004;-84
2024/04/18 07:02:23;;;;;;;0.20;0.20;;;;;;;9.22;69.15;102092.41;5382390;26;19992;-84
2024/04/18 07:04:49;;;;;;;0.10;0.10;;;;;;;9.27;68.36;102095.06;5380486;26;20012;-83
2024/04/18 07:07:15;;;;;;;0.20;0.20;;;;;;;9.35;68.69;102101.31;5385819;26;20011;-83
2024/04/18 07:09:41;;;;;;;0.20;0.20;;;;;;;9.32;68.37;102101.28;5400795;26;20006;-83
2024/04/18 07:12:08;;;;;;;8.70;1.85;;;;;;;9.34;68.01;102105.69;5393298;26;20000;-84
2024/04/18 07:14:37;;;;;;;0.30;0.30;;;;;;;9.41;68.56;102103.97;5378702;26;20466;-82
2024/04/18 07:17:03;;;;;;;0.20;0.20;;;;;;;9.34;67.26;102103.03;5379060;26;20018;-82
2024/04/18 07:19:32;;;;;;;0.20;0.20;;;;;;;9.49;68.10;102096.06;5378224;26;20000;-82
2024/04/18 07:21:58;;;;;;;0.10;0.10;;;;;;;9.52;67.65;102099.63;5374622;26;20015;-82
2024/04/18 07:24:26;;;;;;;0.20;0.20;;;;;;;9.59;67.63;102100.53;5378130;26;20332;-82
2024/04/18 07:26:52;;;;;;;0.30;0.28;;;;;;;9.67;67.36;102100.53;5379388;26;20001;-83
2024/04/18 07:29:18;;;;;;;0.20;0.20;;;;;;;9.70;67.26;102106.75;5379190;26;20004;-83
2024/04/18 07:31:44;;;;;;;0.17;0.17;;;;;;;9.79;67.91;102099.72;5379640;26;20000;-84
2024/04/18 07:34:11;;;;;;;0.10;0.10;;;;;;;9.86;68.22;102101.53;5379306;26;20476;-84
2024/04/18 07:36:37;;;;;;;0.13;0.13;;;;;;;9.90;67.53;102107.72;5378436;26;20028;-81
2024/04/18 07:39:03;;;;;;;0.10;0.10;;;;;;;10.00;67.34;102107.72;5379253;26;20439;-82
2024/04/18 07:41:29;;;;;;;0.10;0.10;;;;;;;10.17;67.28;102114.84;5380387;26;20375;-83
2024/04/18 07:43:55;;;;;;;0.20;0.20;;;;;;;10.32;66.38;102119.28;5379394;26;20012;-82
2024/04/18 07:46:26;;;;;;;0.17;0.17;;;;;;;10.48;65.97;102120.19;5379155;26;19997;-82
2024/04/18 07:48:52;;;;;;;0.10;0.10;;;;;;;10.65;65.69;102123.78;5378618;26;20015;-82
2024/04/18 07:51:20;;;;;;;0.20;0.20;;;;;;;10.88;66.32;102125.53;5380085;26;19992;-83
2024/04/18 07:53:46;;;;;;;0.20;0.20;;;;;;;10.95;64.83;102115.78;5377827;26;20004;-83
2024/04/18 07:56:12;;;;;;;0.10;0.10;;;;;;;11.12;64.56;102129.03;5372823;26;20004;-83
2024/04/18 07:58:39;;;;;;;0.10;0.10;;;;;;;11.20;63.32;102121.91;5379097;26;19997;-84
2024/04/18 08:01:08;;;;;;;0.10;0.10;;;;;;;11.21;60.47;102126.34;5380266;26;20000;-84
2024/04/18 08:03:35;;;;;;;0.10;0.10;;;;;;;11.35;60.28;102131.63;5379402;26;20542;-83
2024/04/18 08:06:01;;;;;;;0.10;0.10;;;;;;;11.36;61.47;102133.38;5381563;26;20005;-85
2024/04/18 08:08:27;;;;;;;0.20;0.20;;;;;;;11.41;62.58;102136.91;5390388;26;20015;-84
2024/04/18 08:10:53;;;;;;;0.10;0.10;;;;;;;11.39;61.73;102137.81;5385478;26;20004;-84
2024/04/18 08:13:19;;;;;;;0.10;0.10;;;;;;;11.39;61.58;102148.41;5380577;26;20000;-84
2024/04/18 08:15:51;;;;;;;0.10;0.10;;;;;;;11.47;63.08;102146.63;5382232;26;20008;-84
2024/04/18 08:18:38;;;;;;;0.20;0.20;;;;;;;11.55;63.02;102160.78;5392961;26;20000;-83
2024/04/18 08:21:04;;;;;;;0.10;0.10;;;;;;;11.24;60.06;102158.19;5383772;26;20073;-85
2024/04/18 08:23:30;;;;;;;0.10;0.10;;;;;;;11.45;61.28;102159.03;5381509;26;20000;-85
2024/04/18 08:25:56;;;;;;;0.10;0.10;;;;;;;11.48;59.86;102165.22;5378514;26;20046;-83
2024/04/18 08:28:23;;;;;;;0.10;0.10;;;;;;;11.62;61.57;102165.16;5379459;26;20000;-81
2024/04/18 08:30:50;;;;;;;0.15;0.15;;;;;;;11.72;62.15;102173.97;5378321;26;20008;-83
2024/04/18 08:33:16;;;;;;;0.10;0.10;;;;;;;11.71;60.70;102166.03;5375367;26;20044;-84
2024/04/18 08:35:45;;;;;;;0.10;0.10;;;;;;;11.74;60.89;102163.34;5375831;26;20074;-85
2024/04/18 08:38:12;;;;;;;0.10;0.10;;;;;;;11.63;60.41;102180.22;5372937;26;19996;-85
2024/04/18 08:40:44;;;;;;;0.10;0.10;;;;;;;11.56;60.03;102167.84;5379520;26;19996;-85
2024/04/18 08:43:11;;;;;;;0.20;0.20;;;;;;;11.44;60.36;102178.47;5379443;26;20008;-85
2024/04/18 08:45:40;;;;;;;0.10;0.10;;;;;;;11.43;58.57;102174.97;5377805;26;20000;-85
2024/04/18 08:48:08;;;;;;;0.20;0.20;;;;;;;11.45;59.17;102180.25;5374360;26;20015;-84
2024/04/18 08:50:37;;;;;;;0.20;0.20;;;;;;;11.56;60.79;102181.09;5383829;26;20000;-84
2024/04/18 08:53:05;;;;;;;0.10;0.10;;;;;;;11.62;60.18;102183.75;5384076;26;20015;-85
2024/04/18 08:55:35;;;;;;;0.10;0.10;;;;;;;11.64;59.01;102176.66;5385161;26;20071;-85
2024/04/18 08:58:05;;;;;;;0.10;0.10;;;;;;;11.71;58.61;102171.34;5347737;26;20481;-84
2024/04/18 09:00:33;;;;;;;0.10;0.10;;;;;;;11.75;58.73;102179.31;5380630;26;20028;-84
2024/04/18 09:03:01;;;;;;;0.10;0.10;;;;;;;11.72;57.03;102179.28;5383392;26;20004;-84
2024/04/18 09:05:27;;;;;;;0.10;0.10;;;;;;;11.93;58.69;102172.16;5381347;26;20000;-84
2024/04/18 09:07:53;;;;;;;0.17;0.17;;;;;;;11.92;55.96;102178.34;5382364;26;19997;-84
2024/04/18 09:10:23;;;;;;;0.10;0.10;;;;;;;12.12;58.59;102184.50;5383737;26;19992;-84
2024/04/18 09:12:51;;;;;;;0.10;0.10;;;;;;;12.23;58.28;102187.06;5383206;26;20010;-85
2024/04/18 09:15:17;;;;;;;0.20;0.20;;;;;;;12.39;56.20;102176.38;5381520;26;19996;-85
2024/04/18 09:17:43;;;;;;;0.10;0.10;;;;;;;12.45;54.73;102179.88;5384499;26;20012;-84
2024/04/18 09:20:10;;;;;;;0.10;0.10;;;;;;;12.71;55.88;102176.16;5386687;26;20001;-85
2024/04/18 09:22:36;;;;;;;0.10;0.10;;;;;;;12.79;55.92;102176.09;5395180;26;19996;-84
2024/04/18 09:25:06;;;;;;;0.10;0.10;;;;;;;12.73;52.41;102173.47;5402050;26;19996;-84
2024/04/18 09:27:36;;;;;;;0.10;0.10;;;;;;;13.02;56.05;102167.03;5399005;26;20095;-84
2024/04/18 09:30:02;;;;;;;0.10;0.10;;;;;;;13.08;53.75;102172.28;5399643;26;20006;-85
2024/04/18 09:32:29;;;;;;;0.10;0.10;;;;;;;13.12;51.52;102174.00;5386675;26;20000;-85
2024/04/18 09:34:57;;;;;;;0.10;0.10;;;;;;;13.15;53.40;102173.13;5386830;26;20000;-85
2024/04/18 09:37:29;;;;;;;0.10;0.10;;;;;;;13.02;51.89;102172.34;5388197;26;20015;-85
2024/04/18 09:39:58;;;;;;;0.10;0.10;;;;;;;12.99;53.46;102177.72;5387563;26;20000;-85
2024/04/18 09:45:14;;;;;;;0.10;0.10;;;;;;;12.82;53.77;102181.38;5502987;25;1837652;-85
2024/04/18 09:47:43;;;;;;;0.10;0.10;;;;;;;12.73;54.97;102181.44;5542485;25;19997;-84
2024/04/18 09:50:09;;;;;;;0.10;0.10;;;;;;;12.62;53.99;102184.19;5542577;25;20020;-83
2024/04/18 09:52:36;;;;;;;0.10;0.10;;;;;;;12.48;52.75;102180.75;5543516;25;19997;-83
2024/04/18 09:55:04;;;;;;;0.10;0.10;;;;;;;12.34;49.19;102170.22;5553007;25;20057;-86
2024/04/18 09:57:33;;;;;;;0.10;0.10;;;;;;;12.51;52.77;102155.03;5536180;25;20016;-85
2024/04/18 10:00:00;;;;;;;0.08;0.08;;;;;;;12.64;49.81;102162.91;5549986;25;20001;-84
2024/04/18 10:02:28;;;;;;;0.10;0.10;;;;;;;12.82;50.01;102161.88;5544862;25;20445;-85
2024/04/18 10:04:55;;;;;;;0.10;0.10;;;;;;;12.90;48.13;102162.72;5545416;25;20001;-85
2024/04/18 10:07:24;;;;;;;0.10;0.10;;;;;;;13.18;49.71;102167.75;5548026;25;19997;-85
2024/04/18 10:09:52;;;;;;;0.10;0.10;;;;;;;13.35;50.94;102160.50;5548918;25;20008;-86
2024/04/18 10:12:19;;;;;;;0.10;0.10;;;;;;;13.35;45.33;102167.59;5547218;25;19993;-84
2024/04/18 10:14:45;;;;;;;0.10;0.10;;;;;;;13.60;46.87;102168.25;5545835;25;20012;-85
2024/04/18 10:17:31;;;;;;;0.10;0.10;;;;;;;13.88;45.48;102159.91;5529367;25;20001;-84
2024/04/18 10:20:04;;;;;;;0.10;0.10;;;;;;;13.88;45.87;102167.91;5540145;25;20002;-85
2024/04/18 10:22:31;;;;;;;0.10;0.10;;;;;;;13.82;45.50;102168.88;5544380;25;19997;-86
2024/04/18 10:24:57;;;;;;;0.10;0.10;;;;;;;13.76;45.92;102168.94;5541009;25;19993;-83
2024/04/18 10:27:23;;;;;;;0.10;0.10;;;;;;;13.71;46.20;102177.00;5539223;25;19993;-85
2024/04/18 10:29:55;;;;;;;0.10;0.10;;;;;;;13.66;45.97;102180.63;5544377;25;20356;-85
2024/04/18 10:32:25;;;;;;;0.10;0.10;;;;;;;13.68;45.83;102178.81;5544416;25;20068;-85
2024/04/18 10:34:53;;;;;;;0.10;0.10;;;;;;;13.93;45.42;102182.03;5545117;25;20073;-85
2024/04/18 10:37:23;;;;;;;0.10;0.10;;;;;;;14.17;47.09;102178.19;5566947;25;19988;-86
2024/04/18 10:39:49;;;;;;;0.10;0.10;;;;;;;14.03;46.57;102177.47;5555862;25;19989;-88
2024/04/18 10:42:20;;;;;;;0.10;0.10;;;;;;;13.89;45.88;102189.22;5551633;25;19994;-86
2024/04/18 10:44:47;;;;;;;0.10;0.10;;;;;;;13.68;45.36;102192.13;5518515;25;20012;-84
2024/04/18 10:47:14;;;;;;;0.10;0.10;;;;;;;13.80;46.15;102194.66;5544035;25;20345;-84
2024/04/18 10:49:43;;;;;;;0.10;0.10;;;;;;;13.84;43.78;102190.16;5535740;25;20037;-83
2024/04/18 10:52:10;;;;;;;7.00;1.00;;;;;;;13.80;43.24;102186.66;5549538;25;20004;-87
2024/04/18 10:54:37;;;;;;;0.10;0.10;;;;;;;13.68;43.14;102193.03;5549643;25;19997;-86
2024/04/18 10:57:04;;;;;;;0.10;0.10;;;;;;;13.78;43.87;102190.25;5531492;26;20430;-86
2024/04/18 10:59:30;;;;;;;0.10;0.10;;;;;;;13.79;42.61;102182.22;5517407;26;20030;-86
2024/04/18 11:04:41;;;;;;;0.10;0.10;;;;;;;14.20;43.18;102183.47;5539412;25;20348;-84
2024/04/18 11:07:07;;;;;;;0.10;0.10;;;;;;;14.36;42.39;102178.81;5510562;25;20002;-84
2024/04/18 11:09:39;;;;;;;0.10;0.10;;;;;;;14.60;43.61;102170.47;5511603;25;19998;-84
2024/04/18 11:12:06;;;;;;;0.20;0.20;;;;;;;14.74;43.40;102170.28;5511866;25;20014;-85
2024/04/18 11:14:33;;;;;;;0.10;0.10;;;;;;;14.97;42.95;102169.91;5510357;26;20006;-84
2024/04/18 11:17:00;;;;;;;0.17;0.17;;;;;;;15.08;41.53;102173.28;5511639;25;20016;-85
2024/04/18 11:19:27;;;;;;;0.15;0.15;;;;;;;14.93;43.11;102168.19;5504971;25;22036;-85
2024/04/18 11:21:54;;;;;;;0.10;0.10;;;;;;;14.80;43.67;102168.38;5511033;26;19998;-85
2024/04/18 11:24:21;;;;;;;0.10;0.10;;;;;;;14.51;43.23;102183.03;5509244;25;20002;-84
2024/04/18 11:26:49;;;;;;;0.10;0.10;;;;;;;14.38;43.44;102173.44;5497748;26;20085;-84
2024/04/18 11:29:16;;;;;;;0.10;0.10;;;;;;;14.17;43.75;102180.84;5493133;25;20075;-84
2024/04/18 11:31:42;;;;;;;0.10;0.10;;;;;;;13.98;42.06;102177.56;5488610;26;20017;-84
2024/04/18 11:34:08;;;;;;;0.10;0.10;;;;;;;13.95;43.16;102174.91;5486719;26;20030;-83
2024/04/18 11:36:38;;;;;;;0.10;0.10;;;;;;;14.06;43.56;102169.47;5514586;25;20001;-83
2024/04/18 11:39:05;;;;;;;0.10;0.10;;;;;;;14.19;43.71;102171.06;5524917;26;20018;-83